createdAt,value
2022-11-06T00:00:48.811Z,56.88
2022-11-06T00:03:18.714Z,57.80
2022-11-06T00:06:04.837Z,58.33
2022-11-06T00:08:34.807Z,57.28
2022-11-06T00:11:09.066Z,57.85
2022-11-06T00:13:37.755Z,58.09
2022-11-06T00:16:07.156Z,57.72
2022-11-06T00:18:38.267Z,57.90
2022-11-06T00:21:11.110Z,57.33
2022-11-06T00:23:40.219Z,57.45
2022-11-06T00:26:09.326Z,56.90
2022-11-06T00:28:38.343Z,57.27
2022-11-06T00:31:08.065Z,56.53
2022-11-06T00:33:38.212Z,56.11
2022-11-06T00:36:08.490Z,54.97
2022-11-06T00:38:37.575Z,55.38
2022-11-06T00:41:07.433Z,55.74
2022-11-06T00:43:36.953Z,56.09
2022-11-06T00:46:06.905Z,57.23
2022-11-06T00:48:35.833Z,57.76
2022-11-06T00:51:07.042Z,56.71
2022-11-06T00:53:36.084Z,55.94
2022-11-06T00:56:08.905Z,55.04
2022-11-06T00:58:38.633Z,55.15
2022-11-06T01:01:08.788Z,56.53
2022-11-06T01:03:37.443Z,57.55
2022-11-06T01:06:09.797Z,58.70
2022-11-06T01:08:38.536Z,58.85
2022-11-06T01:11:07.797Z,58.86
2022-11-06T01:13:36.614Z,60.23
2022-11-06T01:16:07.229Z,58.76
2022-11-06T01:18:36.711Z,58.47
2022-11-06T01:21:08.635Z,58.34
2022-11-06T01:23:37.476Z,57.96
2022-11-06T01:26:06.690Z,57.91
2022-11-06T01:28:35.991Z,58.84
2022-11-06T01:31:05.191Z,59.10
2022-11-06T01:33:33.710Z,59.31
2022-11-06T01:36:02.354Z,58.43
2022-11-06T01:38:32.565Z,59.34
2022-11-06T01:41:01.114Z,58.78
2022-11-06T01:43:49.180Z,58.37
2022-11-06T01:46:18.920Z,59.32
2022-11-06T01:48:52.974Z,59.17
2022-11-06T01:51:23.382Z,58.66
2022-11-06T01:53:54.275Z,57.01
2022-11-06T01:56:24.331Z,56.27
2022-11-06T01:58:55.341Z,56.65
2022-11-06T02:01:24.956Z,57.10
2022-11-06T02:04:00.545Z,56.71
2022-11-06T02:06:29.907Z,55.65
2022-11-06T02:09:00.395Z,55.58
2022-11-06T02:11:29.687Z,55.38
2022-11-06T02:14:07.465Z,55.54
2022-11-06T02:16:43.185Z,55.33
2022-11-06T02:19:32.443Z,55.53
2022-11-06T02:22:25.678Z,55.52
2022-11-06T02:25:08.273Z,55.39
2022-11-06T02:27:38.663Z,54.72
2022-11-06T02:30:09.645Z,55.16
2022-11-06T02:32:43.041Z,55.74
2022-11-06T02:35:19.801Z,55.11
2022-11-06T02:37:50.272Z,54.60
2022-11-06T02:40:20.512Z,55.63
2022-11-06T02:42:54.561Z,55.60
2022-11-06T02:45:25.562Z,54.91
2022-11-06T02:47:56.679Z,55.76
2022-11-06T02:50:30.587Z,55.16
2022-11-06T02:53:03.754Z,55.27
2022-11-06T02:55:36.965Z,55.02
2022-11-06T02:58:10.748Z,55.51
2022-11-06T03:00:43.405Z,54.83
2022-11-06T03:03:19.103Z,55.22
2022-11-06T03:05:54.532Z,55.04
2022-11-06T03:08:29.544Z,55.13
2022-11-06T03:11:06.913Z,54.83
2022-11-06T03:13:48.030Z,55.59
2022-11-06T03:16:27.726Z,55.59
2022-11-06T03:19:03.831Z,54.76
2022-11-06T03:21:39.570Z,55.80
2022-11-06T03:24:16.078Z,56.22
2022-11-06T03:26:49.038Z,56.00
2022-11-06T03:29:24.248Z,56.95
2022-11-06T03:31:57.023Z,56.30
2022-11-06T03:34:31.413Z,55.02
2022-11-06T03:37:07.128Z,54.69
2022-11-06T03:39:41.446Z,54.70
2022-11-06T03:42:14.602Z,55.42
2022-11-06T03:44:48.068Z,55.58
2022-11-06T03:47:23.544Z,55.67
2022-11-06T03:49:55.455Z,54.75
2022-11-06T03:52:30.577Z,55.78
2022-11-06T03:55:03.124Z,55.25
2022-11-06T03:57:39.128Z,54.48
2022-11-06T04:00:10.940Z,55.41
2022-11-06T04:02:50.020Z,56.21
2022-11-06T04:05:23.082Z,56.92
2022-11-06T04:08:14.166Z,55.99
2022-11-06T04:11:20.379Z,56.03
2022-11-06T04:14:02.007Z,54.83
2022-11-06T04:16:35.401Z,54.74
2022-11-06T04:19:04.022Z,53.47
2022-11-06T04:21:40.917Z,54.11
2022-11-06T04:24:42.403Z,54.46
2022-11-06T04:27:27.959Z,54.88
2022-11-06T04:30:05.349Z,54.37
2022-11-06T04:32:49.587Z,55.81
2022-11-06T04:35:28.645Z,54.94
2022-11-06T04:38:04.099Z,55.67
2022-11-06T04:40:46.614Z,55.41
2022-11-06T04:43:20.769Z,56.38
2022-11-06T04:45:53.293Z,56.06
2022-11-06T04:48:25.338Z,57.41
2022-11-06T04:50:56.906Z,57.10
2022-11-06T04:53:27.033Z,56.75
2022-11-06T04:55:57.614Z,55.85
2022-11-06T04:58:26.020Z,55.84
2022-11-06T05:00:54.608Z,56.87
2022-11-06T05:03:24.634Z,55.88
2022-11-06T05:05:53.214Z,56.31
2022-11-06T05:08:22.374Z,56.26
2022-11-06T05:10:50.868Z,56.12
2022-11-06T05:13:19.388Z,56.48
2022-11-06T05:15:49.461Z,55.94
2022-11-06T05:18:18.012Z,55.30
2022-11-06T05:20:47.873Z,55.84
2022-11-06T05:23:15.775Z,55.87
2022-11-06T05:25:44.504Z,55.16
2022-11-06T05:28:12.845Z,54.79
2022-11-06T05:30:41.326Z,56.04
2022-11-06T05:33:12.685Z,55.58
2022-11-06T05:35:41.251Z,54.99
2022-11-06T05:38:20.243Z,55.55
2022-11-06T05:40:48.746Z,55.92
2022-11-06T05:43:17.304Z,54.73
2022-11-06T05:45:47.575Z,53.95
2022-11-06T05:48:16.306Z,54.00
2022-11-06T05:50:44.618Z,53.25
2022-11-06T05:53:17.107Z,54.51
2022-11-06T05:55:48.322Z,53.47
2022-11-06T05:58:18.020Z,54.54
2022-11-06T06:00:46.723Z,54.43
2022-11-06T06:03:15.319Z,54.67
2022-11-06T06:05:49.219Z,53.36
2022-11-06T06:08:26.704Z,53.95
2022-11-06T06:11:01.383Z,54.01
2022-11-06T06:13:30.024Z,53.83
2022-11-06T06:16:02.623Z,53.25
2022-11-06T06:18:31.585Z,53.71
2022-11-06T06:21:00.465Z,54.53
2022-11-06T06:23:29.060Z,55.36
2022-11-06T06:25:59.583Z,53.38
2022-11-06T06:28:28.518Z,53.08
2022-11-06T06:31:01.196Z,54.87
2022-11-06T06:33:30.468Z,54.69
2022-11-06T06:35:59.362Z,53.77
2022-11-06T06:38:27.869Z,53.61
2022-11-06T06:40:56.321Z,53.43
2022-11-06T06:43:28.303Z,53.58
2022-11-06T06:46:04.997Z,53.63
2022-11-06T06:48:41.478Z,52.96
2022-11-06T06:51:10.480Z,53.99
2022-11-06T06:53:39.230Z,54.89
2022-11-06T06:56:11.912Z,55.59
2022-11-06T06:58:43.202Z,55.24
2022-11-06T07:01:15.521Z,53.78
2022-11-06T07:03:47.207Z,53.05
2022-11-06T07:06:45.864Z,52.80
2022-11-06T07:09:14.586Z,51.96
2022-11-06T07:11:43.106Z,53.21
2022-11-06T07:14:13.152Z,53.18
2022-11-06T07:16:44.031Z,53.75
2022-11-06T07:19:12.878Z,52.21
2022-11-06T07:21:43.699Z,55.42
2022-11-06T07:24:12.140Z,53.55
2022-11-06T07:26:41.715Z,53.51
2022-11-06T07:29:10.206Z,54.48
2022-11-06T07:31:40.223Z,53.06
2022-11-06T07:34:11.419Z,53.63
2022-11-06T07:36:40.627Z,53.82
2022-11-06T07:39:09.212Z,54.62
2022-11-06T07:41:38.514Z,53.58
2022-11-06T07:44:07.248Z,53.84
2022-11-06T07:46:35.939Z,53.15
2022-11-06T07:49:09.141Z,55.43
2022-11-06T07:51:38.067Z,54.69
2022-11-06T07:54:10.287Z,55.35
2022-11-06T07:58:43.070Z,52.09
2022-11-06T08:00:55.711Z,53.03
2022-11-06T08:03:35.575Z,55.41
2022-11-06T08:06:06.656Z,53.96
2022-11-06T08:13:41.965Z,53.87
2022-11-06T08:16:13.530Z,53.59
2022-11-06T08:18:43.122Z,56.00
2022-11-06T08:21:33.759Z,55.42
2022-11-06T08:24:35.418Z,55.70
2022-11-06T08:27:22.576Z,55.68
2022-11-06T08:29:51.441Z,55.52
2022-11-06T08:32:20.181Z,54.78
2022-11-06T08:34:51.522Z,54.76
2022-11-06T08:37:39.282Z,55.30
2022-11-06T08:40:09.495Z,55.46
2022-11-06T08:42:41.400Z,54.79
2022-11-06T08:45:11.313Z,55.68
2022-11-06T08:47:40.230Z,54.12
2022-11-06T08:50:09.610Z,54.06
2022-11-06T08:52:41.450Z,53.71
2022-11-06T08:55:10.973Z,53.50
2022-11-06T08:57:41.177Z,54.26
2022-11-06T09:00:13.358Z,54.29
2022-11-06T09:02:44.243Z,54.81
2022-11-06T09:05:24.215Z,53.55
2022-11-06T09:07:55.048Z,53.20
2022-11-06T09:10:28.433Z,53.81
2022-11-06T09:13:57.633Z,52.80
2022-11-06T09:20:17.038Z,51.67
2022-11-06T09:22:46.744Z,52.81
2022-11-06T09:25:20.000Z,53.86
2022-11-06T09:27:58.892Z,53.79
2022-11-06T09:30:31.972Z,53.41
2022-11-06T09:33:09.200Z,53.40
2022-11-06T09:35:41.263Z,54.97
2022-11-06T09:38:13.209Z,54.79
2022-11-06T09:40:48.538Z,54.72
2022-11-06T09:43:58.152Z,52.86
2022-11-06T09:46:25.564Z,54.57
2022-11-06T09:49:00.425Z,53.61
2022-11-06T09:51:39.451Z,53.04
2022-11-06T09:54:20.442Z,54.11
2022-11-06T09:56:56.842Z,54.22
2022-11-06T09:59:26.398Z,51.68
2022-11-06T10:02:02.113Z,55.23
2022-11-06T10:04:42.183Z,55.48
2022-11-06T10:07:25.098Z,55.08
2022-11-06T10:10:20.868Z,53.95
2022-11-06T10:13:45.358Z,55.23
2022-11-06T10:16:24.840Z,55.38
2022-11-06T10:19:03.673Z,54.20
2022-11-06T10:21:44.773Z,54.95
2022-11-06T10:24:25.191Z,53.79
2022-11-06T10:26:57.676Z,50.79
2022-11-06T10:29:59.628Z,52.04
2022-11-06T10:32:50.751Z,52.96
2022-11-06T10:35:27.733Z,52.30
2022-11-06T10:38:02.678Z,54.25
2022-11-06T10:40:38.125Z,55.16
2022-11-06T10:43:19.471Z,52.17
2022-11-06T10:45:53.979Z,52.58
2022-11-06T10:48:30.853Z,52.84
2022-11-06T10:51:20.224Z,52.53
2022-11-06T10:53:59.773Z,55.48
2022-11-06T10:56:47.396Z,56.14
2022-11-06T10:59:17.512Z,55.62
2022-11-06T11:01:50.114Z,55.78
2022-11-06T11:04:18.951Z,55.23
2022-11-06T11:06:47.398Z,56.45
2022-11-06T11:09:32.931Z,54.91
2022-11-06T11:12:02.562Z,53.41
2022-11-06T11:14:33.659Z,52.92
2022-11-06T11:17:11.977Z,55.23
2022-11-06T11:19:45.591Z,53.15
2022-11-06T11:22:21.637Z,54.51
2022-11-06T11:25:06.008Z,54.63
2022-11-06T11:27:54.649Z,54.29
2022-11-06T11:30:26.491Z,52.57
2022-11-06T11:33:04.973Z,52.48
2022-11-06T11:35:35.808Z,51.95
2022-11-06T11:38:19.148Z,52.55
2022-11-06T11:41:39.833Z,53.77
2022-11-06T11:44:11.611Z,53.96
2022-11-06T11:46:51.685Z,53.69
2022-11-06T11:49:54.800Z,53.04
2022-11-06T11:52:54.862Z,52.88
2022-11-06T11:55:33.384Z,52.58
2022-11-06T11:58:28.166Z,54.24
2022-11-06T12:01:18.846Z,54.45
2022-11-06T12:04:00.223Z,54.73
2022-11-06T12:06:33.914Z,54.60
2022-11-06T12:09:16.889Z,54.40
2022-11-06T12:11:48.830Z,54.04
2022-11-06T12:14:40.931Z,53.35
2022-11-06T12:17:22.897Z,53.59
2022-11-06T12:22:51.785Z,52.96
2022-11-06T12:25:35.425Z,55.84
2022-11-06T12:28:16.349Z,55.14
2022-11-06T12:30:55.601Z,53.78
2022-11-06T12:33:59.641Z,54.50
2022-11-06T12:36:43.072Z,54.74
2022-11-06T12:39:32.845Z,53.23
2022-11-06T12:42:21.180Z,53.63
2022-11-06T12:44:58.105Z,54.09
2022-11-06T12:48:01.145Z,52.93
2022-11-06T12:51:09.165Z,52.56
2022-11-06T12:53:53.882Z,53.00
2022-11-06T12:56:42.141Z,51.86
2022-11-06T12:59:33.184Z,51.52
2022-11-06T13:02:21.203Z,51.89
2022-11-06T13:05:11.100Z,54.61
2022-11-06T13:08:13.938Z,55.18
2022-11-06T13:11:01.362Z,54.61
2022-11-06T13:14:06.675Z,55.25
2022-11-06T13:17:22.818Z,55.39
2022-11-06T13:19:59.825Z,55.62
2022-11-06T13:23:08.222Z,55.30
2022-11-06T13:25:52.608Z,55.23
2022-11-06T13:28:51.041Z,55.99
2022-11-06T13:32:03.379Z,55.69
2022-11-06T13:40:08.865Z,57.49
2022-11-06T13:42:59.018Z,57.89
2022-11-06T13:45:31.653Z,57.24
2022-11-06T13:48:26.271Z,56.04
2022-11-06T13:51:01.651Z,56.66
2022-11-06T13:53:38.687Z,57.25
2022-11-06T13:56:39.028Z,57.65
2022-11-06T13:59:34.320Z,57.95
2022-11-06T14:02:42.041Z,57.63
2022-11-06T14:05:41.995Z,57.23
2022-11-06T14:08:19.602Z,56.49
2022-11-06T14:11:13.509Z,55.77
2022-11-06T14:13:55.592Z,56.04
2022-11-06T14:16:30.052Z,55.89
2022-11-06T14:19:06.588Z,56.07
2022-11-06T14:21:56.046Z,55.34
2022-11-06T14:24:46.157Z,57.12
2022-11-06T14:27:53.482Z,58.39
2022-11-06T14:33:59.653Z,57.15
2022-11-06T14:36:31.296Z,55.96
2022-11-06T14:39:05.319Z,56.36
2022-11-06T14:42:14.276Z,55.69
2022-11-06T14:48:00.879Z,57.18
2022-11-06T14:50:37.236Z,57.61
2022-11-06T14:53:50.809Z,57.17
2022-11-06T14:56:26.036Z,58.12
2022-11-06T14:58:57.474Z,57.93
2022-11-06T15:01:30.803Z,57.08
2022-11-06T15:04:08.499Z,57.83
2022-11-06T15:10:59.879Z,57.11
2022-11-06T15:17:21.927Z,58.13
2022-11-06T15:21:03.495Z,58.98
2022-11-06T15:23:36.073Z,56.88
2022-11-06T15:26:23.822Z,55.37
2022-11-06T15:29:31.921Z,57.55
2022-11-06T15:32:12.650Z,56.71
2022-11-06T15:35:08.056Z,58.11
2022-11-06T15:37:42.228Z,58.63
2022-11-06T15:40:26.295Z,55.97
2022-11-06T15:42:56.811Z,57.33
2022-11-06T15:45:29.176Z,56.73
2022-11-06T15:48:23.441Z,55.12
2022-11-06T15:50:52.145Z,57.46
2022-11-06T15:53:23.924Z,55.73
2022-11-06T15:55:56.158Z,57.04
2022-11-06T15:58:31.515Z,56.47
2022-11-06T16:01:03.869Z,57.17
2022-11-06T16:03:47.512Z,58.79
2022-11-06T16:06:36.044Z,58.65
2022-11-06T16:09:05.905Z,57.36
2022-11-06T16:11:41.462Z,56.96
2022-11-06T16:14:14.228Z,57.40
2022-11-06T16:16:51.047Z,56.01
2022-11-06T16:19:42.234Z,56.36
2022-11-06T16:22:20.609Z,56.07
2022-11-06T16:24:54.322Z,57.75
2022-11-06T16:27:24.783Z,57.78
2022-11-06T16:29:56.211Z,56.89
2022-11-06T16:32:30.317Z,58.62
2022-11-06T16:35:00.315Z,58.05
2022-11-06T16:37:40.373Z,56.45
2022-11-06T16:40:49.524Z,55.22
2022-11-06T16:43:20.235Z,56.78
2022-11-06T16:45:57.393Z,56.46
2022-11-06T16:48:37.467Z,57.44
2022-11-06T16:51:11.570Z,57.40
2022-11-06T16:53:59.874Z,58.44
2022-11-06T16:56:47.596Z,58.13
2022-11-06T16:59:32.305Z,58.15
2022-11-06T17:02:55.080Z,59.20
2022-11-06T17:06:43.764Z,58.80
2022-11-06T17:09:30.331Z,58.63
2022-11-06T17:12:06.705Z,57.10
2022-11-06T17:15:40.062Z,57.76
2022-11-06T17:18:13.015Z,56.80
2022-11-06T17:20:47.639Z,58.47
2022-11-06T17:23:18.607Z,57.92
2022-11-06T17:26:01.995Z,58.87
2022-11-06T17:28:31.200Z,58.66
2022-11-06T17:31:24.891Z,59.60
2022-11-06T17:33:53.622Z,59.55
2022-11-06T17:36:26.297Z,59.26
2022-11-06T17:38:57.915Z,57.72
2022-11-06T17:41:31.284Z,58.80
2022-11-06T17:44:01.601Z,57.88
2022-11-06T17:46:33.181Z,58.75
2022-11-06T17:49:03.293Z,57.79
2022-11-06T17:55:31.607Z,59.47
2022-11-06T17:58:00.594Z,60.19
2022-11-06T18:04:47.305Z,58.67
2022-11-06T18:07:16.348Z,59.23
2022-11-06T18:10:18.780Z,58.52
2022-11-06T18:12:59.591Z,59.41
2022-11-06T18:15:31.128Z,58.91
2022-11-06T18:18:00.520Z,58.05
2022-11-06T18:20:29.660Z,59.13
2022-11-06T18:22:58.644Z,60.32
2022-11-06T18:25:27.568Z,58.62
2022-11-06T18:28:03.307Z,60.36
2022-11-06T18:30:35.943Z,60.71
2022-11-06T18:33:07.046Z,59.27
2022-11-06T18:35:38.282Z,60.13
2022-11-06T18:38:07.445Z,59.78
2022-11-06T18:40:39.142Z,61.20
2022-11-06T18:43:09.614Z,58.97
2022-11-06T18:46:08.174Z,58.39
2022-11-06T18:48:38.199Z,58.36
2022-11-06T18:51:08.538Z,59.70
2022-11-06T18:53:37.865Z,59.57
2022-11-06T18:56:09.729Z,58.31
2022-11-06T18:58:41.031Z,59.47
2022-11-06T19:01:12.154Z,59.99
2022-11-06T19:03:41.727Z,58.78
2022-11-06T19:06:12.535Z,59.96
2022-11-06T19:08:43.057Z,58.27
2022-11-06T19:11:15.131Z,59.74
2022-11-06T19:13:48.251Z,59.30
2022-11-06T19:16:20.391Z,58.91
2022-11-06T19:21:56.885Z,59.77
2022-11-06T19:24:29.246Z,60.40
2022-11-06T19:26:58.174Z,59.68
2022-11-06T19:29:28.648Z,59.77
2022-11-06T19:32:02.005Z,59.03
2022-11-06T19:34:45.697Z,60.42
2022-11-06T19:37:14.522Z,58.49
2022-11-06T19:39:43.341Z,59.31
2022-11-06T19:42:11.822Z,59.18
2022-11-06T19:44:41.870Z,60.40
2022-11-06T19:47:10.735Z,61.87
2022-11-06T19:49:39.156Z,58.75
2022-11-06T19:52:41.898Z,58.68
2022-11-06T19:55:25.089Z,59.75
2022-11-06T19:57:45.598Z,60.67
2022-11-06T20:00:16.486Z,59.84
2022-11-06T20:02:45.198Z,61.20
2022-11-06T20:05:42.493Z,59.70
2022-11-06T20:08:11.933Z,59.65
2022-11-06T20:10:43.088Z,59.80
2022-11-06T20:13:11.968Z,58.68
2022-11-06T20:15:42.370Z,58.35
2022-11-06T20:18:11.236Z,59.69
2022-11-06T20:20:39.843Z,57.57
2022-11-06T20:23:08.363Z,60.51
2022-11-06T20:25:37.007Z,59.67
2022-11-06T20:28:05.357Z,58.09
2022-11-06T20:30:37.034Z,58.54
2022-11-06T20:33:13.302Z,60.33
2022-11-06T20:35:42.606Z,60.81
2022-11-06T20:38:20.899Z,60.35
2022-11-06T20:40:49.738Z,59.41
2022-11-06T20:43:18.248Z,60.14
2022-11-06T20:45:46.684Z,62.93
2022-11-06T20:48:16.785Z,59.83
2022-11-06T20:50:58.245Z,59.33
2022-11-06T20:53:27.250Z,61.23
2022-11-06T20:55:59.783Z,62.13
2022-11-06T20:58:29.723Z,60.47
2022-11-06T21:01:02.922Z,60.58
2022-11-06T21:03:40.899Z,58.11
2022-11-06T21:06:10.144Z,58.68
2022-11-06T21:08:40.121Z,59.88
2022-11-06T21:11:12.149Z,59.88
2022-11-06T21:13:42.205Z,60.41
2022-11-06T21:16:14.053Z,59.34
2022-11-06T21:18:45.321Z,59.47
2022-11-06T21:21:15.911Z,59.85
2022-11-06T21:23:44.751Z,60.73
2022-11-06T21:26:16.200Z,59.15
2022-11-06T21:28:47.107Z,60.69
2022-11-06T21:31:18.570Z,59.17
2022-11-06T21:33:50.326Z,59.75
2022-11-06T21:36:21.359Z,59.42
2022-11-06T21:38:50.169Z,60.99
2022-11-06T21:41:19.856Z,60.70
2022-11-06T21:43:49.426Z,61.83
2022-11-06T21:46:19.008Z,61.61
2022-11-06T21:48:51.612Z,60.88
2022-11-06T21:51:22.872Z,57.84
2022-11-06T21:54:09.573Z,58.68
2022-11-06T21:56:39.939Z,60.18
2022-11-06T21:59:13.838Z,60.50
2022-11-06T22:01:43.398Z,60.52
2022-11-06T22:04:13.975Z,60.45
2022-11-06T22:06:43.807Z,60.51
2022-11-06T22:09:16.615Z,60.54
2022-11-06T22:11:47.117Z,60.07
2022-11-06T22:14:17.365Z,59.00
2022-11-06T22:16:47.723Z,61.60
2022-11-06T22:19:18.988Z,60.97
2022-11-06T22:21:47.725Z,61.06
2022-11-06T22:24:16.540Z,60.41
2022-11-06T22:26:45.077Z,59.42
2022-11-06T22:29:15.278Z,57.91
2022-11-06T22:31:44.216Z,59.60
2022-11-06T22:34:14.069Z,59.31
2022-11-06T22:36:43.975Z,58.80
2022-11-06T22:39:13.919Z,56.44
2022-11-06T22:41:56.247Z,56.95
2022-11-06T22:44:25.089Z,59.11
2022-11-06T22:46:53.383Z,59.59
2022-11-06T22:49:21.944Z,58.50
2022-11-06T22:51:54.359Z,58.25
2022-11-06T22:54:23.132Z,59.31
2022-11-06T22:56:51.832Z,59.50
2022-11-06T22:59:21.766Z,61.68
2022-11-06T23:01:52.425Z,61.95
2022-11-06T23:04:22.217Z,62.06
2022-11-06T23:06:52.208Z,60.34
2022-11-06T23:09:20.857Z,61.30
2022-11-06T23:11:49.386Z,60.52
2022-11-06T23:14:17.889Z,60.29
2022-11-06T23:16:59.091Z,60.06
2022-11-06T23:19:31.468Z,59.78
2022-11-06T23:22:18.540Z,61.36
2022-11-06T23:24:47.592Z,60.01
2022-11-06T23:27:20.754Z,64.50
2022-11-06T23:29:49.357Z,63.52
2022-11-06T23:32:20.773Z,65.26
2022-11-06T23:34:49.403Z,64.40
2022-11-06T23:37:19.497Z,62.13
2022-11-06T23:39:48.347Z,60.89
2022-11-06T23:42:17.645Z,63.92
2022-11-06T23:45:03.738Z,63.15
2022-11-06T23:47:33.702Z,62.16
2022-11-06T23:50:05.729Z,64.78
2022-11-06T23:52:36.751Z,63.54
2022-11-06T23:55:06.339Z,63.81
2022-11-06T23:57:34.902Z,61.93
